Time;durP1;ratioP1;P1;durP2;ratioP2;P2;SDS_P1;SDS_P2;PMS_P1;PMS_P2;Temp;Humidity;BMP_temperature;BMP_pressure;BME280_temperature;BME280_humidity;BME280_pressure;Samples;Min_cycle;Max_cycle;Signal;HPM_P1;HPM_P2
2022/12/21 00:00:28;;;;;;;;;;;;;;;;;;;;;
2022/12/21 00:02:57;;;;;;;;;;;;;;;;;;;;;
2022/12/21 00:06:00;;;;;;;;;;;;;;;;;;;;;
2022/12/21 00:15:33;;;;;;;;;;;;;;;;;;;;;
2022/12/21 00:18:40;;;;;;;;;;;;;;;;;;;;;
2022/12/21 00:21:41;;;;;;;;;;;;;;;;;;;;;
2022/12/21 00:24:20;;;;;;;;;;;;;;;;;;;;;
2022/12/21 00:27:15;;;;;;;;;;;;;;;;;;;;;
2022/12/21 00:30:27;;;;;;;;;;;;;;;;;;;;;
2022/12/21 00:33:03;;;;;;;;;;;;;;;;;;;;;
2022/12/21 00:35:59;;;;;;;;;;;;;;;;;;;;;
2022/12/21 00:38:58;;;;;;;;;;;;;;;;;;;;;
2022/12/21 00:42:16;;;;;;;;;;;;;;;;;;;;;
2022/12/21 00:45:18;;;;;;;;;7.75;5.50;;;;;13.83;80.12;100776.19;5077944;27;69005;-63
2022/12/21 00:51:43;;;;;;;;;;;;;;;;;;;;;
2022/12/21 00:54:39;;;;;;;;;;;;;;;;;;;;;
2022/12/21 00:58:14;;;;;;;;;10.00;9.50;;;;;13.87;79.73;100772.44;5080042;28;68071;-63
2022/12/21 01:00:54;;;;;;;;;;;;;;;;;;;;;
2022/12/21 01:04:14;;;;;;;;;;;;;;;;;;;;;
2022/12/21 01:07:21;;;;;;;;;;;;;;;;;;;;;
2022/12/21 01:10:01;;;;;;;;;;;;;;;;;;;;;
2022/12/21 01:12:47;;;;;;;;;;;;;;;;;;;;;
2022/12/21 01:16:03;;;;;;;;;21.75;20.00;;;;;13.85;79.42;100777.00;5078764;28;75279;-63
2022/12/21 01:19:11;;;;;;;;;;;;;;;;;;;;;
2022/12/21 01:25:01;;;;;;;;;;;;;;;;;;;;;
2022/12/21 01:28:25;;;;;;;;;;;;;;;;;;;;;
2022/12/21 01:30:53;;;;;;;;;;;;;;;;;;;;;
2022/12/21 01:34:10;;;;;;;;;;;;;;;;;;;;;
2022/12/21 01:37:10;;;;;;;;;;;;;;;;;;;;;
2022/12/21 01:39:46;;;;;;;;;4.00;4.00;;;;;13.62;79.66;100732.44;5078439;28;73771;-63
2022/12/21 01:45:47;;;;;;;;;4.00;4.00;;;;;13.97;79.79;100805.97;5079908;27;45891;-63
2022/12/21 01:48:47;;;;;;;;;5.00;5.00;;;;;13.73;79.82;100767.69;5069592;28;45546;-63
2022/12/21 01:52:05;;;;;;;;;;;;;;;;;;;;;
2022/12/21 01:55:09;;;;;;;;;;;;;;;;;;;;;
2022/12/21 02:01:20;;;;;;;;;;;;;;;;;;;;;
2022/12/21 02:04:35;;;;;;;;;5.00;5.00;;;;;13.94;79.49;100816.81;5078151;28;75328;-63
2022/12/21 02:10:46;;;;;;;;;;;;;;;;;;;;;
2022/12/21 02:13:53;;;;;;;;;;;;;;;;;;;;;
2022/12/21 02:16:48;;;;;;;;;5.00;5.00;;;;;13.83;79.51;100811.06;5071348;28;73680;-63
2022/12/21 02:20:15;;;;;;;;;;;;;;;;;;;;;
2022/12/21 02:23:24;;;;;;;;;;;;;;;;;;;;;
2022/12/21 02:26:05;;;;;;;;;3.00;3.00;;;;;13.88;78.52;100839.47;5069212;28;71887;-63
2022/12/21 02:32:11;;;;;;;;;1.25;1.25;;;;;13.88;77.99;100831.41;5075470;27;45584;-63
2022/12/21 02:35:14;;;;;;;;;;;;;;;;;;;;;
2022/12/21 02:38:10;;;;;;;;;;;;;;;;;;;;;
2022/12/21 02:41:08;;;;;;;;;2.50;2.00;;;;;13.85;77.15;100831.53;5075202;28;75120;-63
2022/12/21 02:44:18;;;;;;;;;4.50;3.00;;;;;13.84;77.19;100821.72;5074828;27;45566;-64
2022/12/21 02:47:53;;;;;;;;;;;;;;;;;;;;;
2022/12/21 02:50:42;;;;;;;;;;;;;;;;;;;;;
2022/12/21 02:53:38;;;;;;;;;;;;;;;;;;;;;
2022/12/21 02:56:37;;;;;;;;;;;;;;;;;;;;;
2022/12/21 02:59:18;;;;;;;;;;;;;;;;;;;;;
2022/12/21 03:02:30;;;;;;;;;;;;;;;;;;;;;
2022/12/21 03:05:22;;;;;;;;;;;;;;;;;;;;;
2022/12/21 03:11:13;;;;;;;;;;;;;;;;;;;;;
2022/12/21 03:14:43;;;;;;;;;;;;;;;;;;;;;
2022/12/21 03:17:52;;;;;;;;;;;;;;;;;;;;;
2022/12/21 03:21:06;;;;;;;;;2.00;2.00;;;;;13.45;76.12;100861.91;5077918;28;72904;-63
2022/12/21 03:24:06;;;;;;;;;;;;;;;;;;;;;
2022/12/21 03:26:46;;;;;;;;;;;;;;;;;;;;;
2022/12/21 03:30:03;;;;;;;;;;;;;;;;;;;;;
2022/12/21 03:33:14;;;;;;;;;;;;;;;;;;;;;
2022/12/21 03:35:58;;;;;;;;;;;;;;;;;;;;;
2022/12/21 03:38:49;;;;;;;;;2.00;2.00;;;;;12.99;76.23;100805.69;5064815;28;72911;-63
2022/12/21 03:45:16;;;;;;;;;;;;;;;;;;;;;
2022/12/21 03:48:35;;;;;;;;;;;;;;;;;;;;;
2022/12/21 03:57:59;;;;;;;;;;;;;;;;;;;;;
2022/12/21 04:00:45;;;;;;;;;;;;;;;;;;;;;
2022/12/21 04:03:32;;;;;;;;;;;;;;;;;;;;;
2022/12/21 04:06:36;;;;;;;;;;;;;;;;;;;;;
2022/12/21 04:09:53;;;;;;;;;;;;;;;;;;;;;
2022/12/21 04:12:50;;;;;;;;;;;;;;;;;;;;;
2022/12/21 04:21:37;;;;;;;;;3.00;1.00;;;;;12.98;75.61;100862.91;5081881;28;45480;-63
2022/12/21 04:34:11;;;;;;;;;1.75;1.00;;;;;13.04;75.46;100893.94;5065072;27;45399;-64
2022/12/21 04:40:15;;;;;;;;;3.00;2.00;;;;;12.97;75.47;100890.63;5080609;28;45326;-63
2022/12/21 04:43:13;;;;;;;;;;;;;;;;;;;;;
2022/12/21 04:46:22;;;;;;;;;2.50;2.50;;;;;12.86;75.40;100872.28;5074824;28;71783;-63
2022/12/21 04:49:24;;;;;;;;;;;;;;;;;;;;;
2022/12/21 04:52:32;;;;;;;;;;;;;;;;;;;;;
2022/12/21 04:55:28;;;;;;;;;;;;;;;;;;;;;
2022/12/21 04:58:19;;;;;;;;;1.00;1.00;;;;;12.74;75.42;100870.09;5068688;28;71861;-63
2022/12/21 05:04:12;;;;;;;;;;;;;;;;;;;;;
2022/12/21 05:07:31;;;;;;;;;;;;;;;;;;;;;
2022/12/21 05:10:27;;;;;;;;;;;;;;;;;;;;;
2022/12/21 05:13:20;;;;;;;;;;;;;;;;;;;;;
2022/12/21 05:16:13;;;;;;;;;;;;;;;;;;;;;
2022/12/21 05:19:20;;;;;;;;;3.50;3.00;;;;;12.54;75.54;100870.88;5079531;28;74468;-63
2022/12/21 05:22:31;;;;;;;;;;;;;;;;;;;;;
2022/12/21 05:25:11;;;;;;;;;;;;;;;;;;;;;
2022/12/21 05:28:14;;;;;;;;;;;;;;;;;;;;;
2022/12/21 05:33:44;;;;;;;;;2.00;2.00;;;;;12.53;75.12;100879.84;5072992;28;45560;-63
2022/12/21 05:36:31;;;;;;;;;;;;;;;;;;;;;
2022/12/21 05:39:32;;;;;;;;;;;;;;;;;;;;;
2022/12/21 05:42:46;;;;;;;;;;;;;;;;;;;;;
2022/12/21 05:45:24;;;;;;;;;;;;;;;;;;;;;
2022/12/21 05:48:03;;;;;;;;;3.50;3.25;;;;;12.53;75.07;100902.16;5079569;28;68912;-63
2022/12/21 05:51:14;;;;;;;;;;;;;;;;;;;;;
2022/12/21 05:54:04;;;;;;;;;3.00;3.00;;;;;12.51;75.12;100916.50;5079352;28;73654;-63
2022/12/21 05:56:42;;;;;;;;;;;;;;;;;;;;;
2022/12/21 05:59:23;;;;;;;;;3.75;2.00;;;;;12.21;75.60;100882.81;5079242;28;68030;-62
2022/12/21 06:02:21;;;;;;;;;;;;;;;;;;;;;
2022/12/21 06:05:11;;;;;;;;;;;;;;;;;;;;;
2022/12/21 06:08:06;;;;;;;;;5.25;3.50;;;;;12.03;75.22;100870.97;5066063;28;71977;-63
2022/12/21 06:11:08;;;;;;;;;;;;;;;;;;;;;
2022/12/21 06:14:12;;;;;;;;;;;;;;;;;;;;;
2022/12/21 06:17:15;;;;;;;;;;;;;;;;;;;;;
2022/12/21 06:19:45;;;;;;;;;4.75;3.50;;;;;12.07;75.36;100892.28;5078995;28;73337;-63
2022/12/21 06:22:26;;;;;;;;;2.75;2.75;;;;;12.06;74.93;100888.72;5080349;28;45619;-63
2022/12/21 06:28:17;;;;;;;;;;;;;;;;;;;;;
2022/12/21 06:30:56;;;;;;;;;2.00;2.00;;;;;11.96;75.16;100898.91;5078090;27;71562;-63
2022/12/21 06:33:41;;;;;;;;;;;;;;;;;;;;;
2022/12/21 06:36:27;;;;;;;;;2.50;2.00;;;;;12.25;75.26;100944.28;5078638;28;72891;-63
2022/12/21 06:44:54;;;;;;;;;;;;;;;;;;;;;
2022/12/21 06:47:38;;;;;;;;;1.25;1.25;;;;;12.03;74.57;100923.63;5078440;28;71471;-63
2022/12/21 06:50:12;;;;;;;;;4.00;3.00;;;;;12.05;74.93;100927.97;5078071;28;47949;-63
2022/12/21 06:52:40;;;;;;;;;2.50;2.00;;;;;12.05;74.68;100927.97;5079458;27;45704;-62
2022/12/21 06:55:06;;;;;;;;;2.00;2.00;;;;;12.15;75.01;100955.28;5078439;27;45451;-61
2022/12/21 06:57:32;;;;;;;;;2.75;2.75;;;;;11.94;74.47;100923.94;5071230;28;45306;-61
2022/12/21 06:59:57;;;;;;;;;2.00;2.00;;;;;11.83;74.75;100914.47;5076832;28;47452;-61
2022/12/21 07:02:23;;;;;;;;;4.00;3.00;;;;;12.05;74.70;100954.72;5067066;27;45674;-61
2022/12/21 07:04:52;;;;;;;;;4.00;4.00;;;;;12.08;74.83;100956.44;5072020;28;45512;-61
2022/12/21 07:07:18;;;;;;;;;2.25;2.25;;;;;11.89;74.75;100932.09;5073303;27;45354;-61
2022/12/21 07:09:43;;;;;;;;;3.75;2.50;;;;;11.89;74.55;100932.09;5082691;27;45508;-61
2022/12/21 07:12:09;;;;;;;;;7.00;3.75;;;;;11.76;74.67;100920.97;5079960;27;45493;-61
2022/12/21 07:14:35;;;;;;;;;3.25;3.00;;;;;11.91;74.63;100948.09;5079102;27;46109;-61
2022/12/21 07:17:01;;;;;;;;;3.75;3.75;;;;;11.82;74.63;100938.59;5079016;28;45366;-61
2022/12/21 07:19:26;;;;;;;;;2.00;2.00;;;;;11.78;74.51;100932.47;5072293;27;48425;-61
2022/12/21 07:21:52;;;;;;;;;3.25;3.25;;;;;11.66;74.62;100923.06;5070154;27;45273;-61
2022/12/21 07:24:20;;;;;;;;;3.75;3.75;;;;;11.75;74.42;100940.59;5077847;28;45529;-61
2022/12/21 07:26:45;;;;;;;;;5.25;3.25;;;;;11.74;74.49;100935.28;5077054;28;45450;-61
2022/12/21 07:29:47;;;;;;;;;;;;;;;;;;;;;
2022/12/21 07:43:09;;;;;;;;;;;;;;;;;;;;;
2022/12/21 07:48:54;;;;;;;;;4.00;4.00;;;;;11.76;74.62;100985.16;5051499;28;45380;-62
2022/12/21 07:51:24;;;;;;;;;4.50;3.75;;;;;11.48;74.70;100945.06;5078619;28;45445;-62
2022/12/21 07:53:53;;;;;;;;;1.25;1.25;;;;;11.46;74.87;100952.25;5084360;27;47057;-62
2022/12/21 07:56:24;;;;;;;;;7.00;5.00;;;;;11.52;74.59;100959.22;5091733;27;45520;-62
2022/12/21 07:59:02;;;;;;;;;3.00;3.00;;;;;11.49;74.17;100960.16;5075775;28;45364;-62
2022/12/21 08:01:43;;;;;;;;;;;;;;;;;;;;;
2022/12/21 08:04:17;;;;;;;;;5.75;5.75;;;;;11.61;74.90;100994.53;5077075;28;74326;-62
2022/12/21 08:07:07;;;;;;;;;6.00;3.75;;;;;11.63;74.70;100997.16;5074448;28;45671;-62
2022/12/21 08:10:22;;;;;;;;;3.75;3.75;;;;;11.60;74.74;100994.59;5076408;28;45471;-61
2022/12/21 08:13:00;;;;;;;;;5.00;4.00;;;;;11.60;74.92;100991.91;5075353;28;45841;-62
2022/12/21 08:15:33;;;;;;;;;5.75;4.25;;;;;11.42;74.70;100970.19;5076080;28;45499;-62
2022/12/21 08:18:14;;;;;;;;;;;;;;;;;;;;;
2022/12/21 08:20:43;;;;;;;;;3.75;3.75;;;;;11.37;74.75;100971.28;5072858;28;70476;-61
2022/12/21 08:23:09;;;;;;;;;7.00;5.25;;;;;11.41;75.02;100984.50;5077737;28;45547;-61
2022/12/21 08:25:34;;;;;;;;;7.25;6.00;;;;;11.50;74.97;101004.69;5077564;28;45791;-61
2022/12/21 08:28:02;;;;;;;;;6.50;5.25;;;;;11.28;75.04;100975.13;5072392;27;45488;-62
2022/12/21 08:30:41;;;;;;;;;7.00;5.50;;;;;11.29;74.96;100977.75;5067303;27;45668;-62
2022/12/21 08:33:09;;;;;;;;;6.00;5.00;;;;;11.31;75.05;100991.94;5074117;27;45491;-61
2022/12/21 08:35:54;;;;;;;;;4.25;4.00;;;;;11.29;75.13;100972.41;5078223;28;47707;-62
2022/12/21 08:41:10;;;;;;;;;9.00;5.00;;;;;11.16;75.48;100951.44;5069039;28;45658;-61
2022/12/21 08:43:41;;;;;;;;;6.50;3.50;;;;;11.17;75.46;100959.41;5078865;28;46147;-61
2022/12/21 08:46:15;;;;;;;;;5.00;3.75;;;;;11.28;75.61;100964.44;5072588;27;45506;-61
2022/12/21 08:48:53;;;;;;;;;;;;;;;;;;;;;
2022/12/21 08:51:31;;;;;;;;;;;;;;;;;;;;;
2022/12/21 08:54:06;;;;;;;;;7.00;6.00;;;;;11.52;75.22;101008.19;5076979;28;73059;-61
2022/12/21 08:56:49;;;;;;;;;7.75;7.75;;;;;11.34;75.91;100984.72;5079156;27;46390;-62
2022/12/21 08:59:16;;;;;;;;;4.75;4.00;;;;;11.36;75.51;100996.25;5059938;28;45373;-62
2022/12/21 09:02:20;;;;;;;;;5.75;5.75;;;;;11.36;75.52;100977.53;5077933;28;45551;-61
2022/12/21 09:04:46;;;;;;;;;7.50;7.50;;;;;11.26;75.67;100944.88;5073885;27;45623;-61
2022/12/21 09:07:12;;;;;;;;;8.25;6.50;;;;;11.23;75.59;100940.50;5074993;28;47305;-61
2022/12/21 09:09:42;;;;;;;;;7.00;6.25;;;;;11.41;75.81;100968.47;5075208;27;45392;-61
2022/12/21 09:12:23;;;;;;;;;6.25;5.00;;;;;11.57;75.54;100978.66;5074511;27;45623;-61
2022/12/21 09:14:54;;;;;;;;;4.25;4.25;;;;;11.49;75.54;100969.09;5074487;28;45703;-61
2022/12/21 09:17:24;;;;;;;;;4.25;4.25;;;;;11.65;75.92;100996.19;5083903;27;45654;-62
2022/12/21 09:19:49;;;;;;;;;7.25;5.25;;;;;11.70;75.79;101004.06;5082631;27;46236;-61
2022/12/21 09:22:27;;;;;;;;;;;;;;;;;;;;;
2022/12/21 09:24:54;;;;;;;;;6.25;4.00;;;;;11.60;75.75;100974.06;5078420;28;72877;-62
2022/12/21 09:27:27;;;;;;;;;6.50;5.00;;;;;11.42;75.50;100947.94;5077566;28;48354;-61
2022/12/21 09:29:52;;;;;;;;;3.75;3.50;;;;;11.74;75.71;101002.16;5075517;28;45748;-60
2022/12/21 09:32:17;;;;;;;;;5.25;4.50;;;;;11.70;75.71;101000.53;5070799;27;45476;-60
2022/12/21 09:34:43;;;;;;;;;4.00;4.00;;;;;11.72;75.65;100994.19;5077585;27;45580;-58
2022/12/21 09:37:08;;;;;;;;;6.50;5.00;;;;;11.73;75.80;100997.72;5077073;28;46193;-58
2022/12/21 09:39:34;;;;;;;;;4.75;3.00;;;;;11.71;75.75;101000.47;5075564;28;46802;-59
2022/12/21 09:42:22;;;;;;;;;4.25;4.25;;;;;11.71;75.68;101016.50;5077915;28;45742;-59
2022/12/21 09:45:05;;;;;;;;;6.50;3.75;;;;;11.74;75.56;101027.09;5071185;28;45563;-58
2022/12/21 09:47:42;;;;;;;;;3.00;2.75;;;;;11.75;75.53;101017.28;5082088;27;47649;-59
2022/12/21 09:50:18;;;;;;;;;3.00;3.00;;;;;11.78;76.38;101025.22;5079367;28;45731;-59
2022/12/21 09:52:47;;;;;;;;;4.50;4.00;;;;;11.80;75.76;101031.38;5077936;27;45512;-59
2022/12/21 09:55:23;;;;;;;;;5.75;3.75;;;;;11.80;75.74;101032.25;5077267;28;45460;-59
2022/12/21 09:57:53;;;;;;;;;4.00;4.00;;;;;11.79;75.87;101019.78;5101017;27;45404;-59
2022/12/21 10:00:21;;;;;;;;;6.00;4.00;;;;;11.90;75.85;101023.94;5068102;28;45591;-59
2022/12/21 10:03:25;;;;;;;;;4.25;4.25;;;;;11.91;75.83;101031.00;5077764;27;45460;-59
2022/12/21 10:06:17;;;;;;;;;6.00;5.00;;;;;11.93;75.53;101030.09;5076254;27;47213;-59
2022/12/21 10:08:58;;;;;;;;;4.25;3.00;;;;;11.95;75.42;101030.03;5070989;28;47666;-59
2022/12/21 10:11:53;;;;;;;;;4.00;3.00;;;;;11.94;75.45;101031.81;5066819;28;46570;-59
2022/12/21 10:14:40;;;;;;;;;3.00;3.00;;;;;11.93;75.80;101029.19;5107159;27;45349;-59
2022/12/21 10:17:23;;;;;;;;;4.50;3.50;;;;;11.91;75.82;101029.25;5078947;27;45287;-59
2022/12/21 10:20:07;;;;;;;;;5.75;4.00;;;;;11.91;75.62;101029.25;5077081;27;46201;-59
2022/12/21 10:22:37;;;;;;;;;4.75;4.50;;;;;11.91;75.76;101026.59;5076279;28;45491;-59
2022/12/21 10:25:16;;;;;;;;;3.25;3.00;;;;;11.86;75.67;101015.09;5078391;27;45436;-59
2022/12/21 10:27:59;;;;;;;;;4.00;3.75;;;;;11.88;75.95;101013.28;5084720;27;46349;-59
2022/12/21 10:30:25;;;;;;;;;2.50;2.50;;;;;11.82;75.74;100992.06;5077844;28;45708;-59
2022/12/21 10:32:50;;;;;;;;;5.00;4.00;;;;;11.90;76.04;100994.50;5080561;27;46222;-59
2022/12/21 10:35:18;;;;;;;;;3.75;3.75;;;;;11.91;75.66;101005.19;5077809;27;45411;-59
2022/12/21 10:37:54;;;;;;;;;4.75;3.75;;;;;11.91;75.87;100999.84;5076335;27;45524;-59
2022/12/21 10:40:25;;;;;;;;;4.00;3.00;;;;;11.96;75.74;100996.97;5092019;27;47419;-59
2022/12/21 10:42:52;;;;;;;;;5.00;5.00;;;;;11.93;76.21;100983.72;5078463;27;45479;-59
2022/12/21 10:45:20;;;;;;;;;5.75;4.75;;;;;12.01;75.96;100990.56;5075167;28;45326;-59
2022/12/21 10:47:46;;;;;;;;;4.25;4.25;;;;;12.00;75.74;100979.91;5073904;27;45778;-59
2022/12/21 10:50:15;;;;;;;;;3.00;3.00;;;;;12.08;75.48;100980.53;5077351;27;45852;-59
2022/12/21 10:52:45;;;;;;;;;3.00;3.00;;;;;12.08;75.71;100977.84;5076123;27;45711;-59
2022/12/21 10:55:19;;;;;;;;;3.00;3.00;;;;;12.10;75.65;100965.28;5076104;27;45571;-59
2022/12/21 10:57:47;;;;;;;;;3.75;3.50;;;;;12.03;75.56;100945.03;5070606;27;45758;-59
2022/12/21 11:00:29;;;;;;;;;4.00;4.00;;;;;12.13;75.93;100959.84;5077395;27;46356;-59
2022/12/21 11:02:59;;;;;;;;;5.00;5.00;;;;;11.99;75.64;100936.22;5077686;27;45488;-59
2022/12/21 11:05:37;;;;;;;;;7.00;6.00;;;;;12.16;75.98;100954.38;5073559;28;45818;-59
2022/12/21 11:08:14;;;;;;;;;4.50;3.00;;;;;12.18;75.54;100948.97;5077607;27;45483;-59
2022/12/21 11:10:45;;;;;;;;;5.00;5.00;;;;;12.20;75.41;100947.97;5077201;27;46484;-59
2022/12/21 11:13:12;;;;;;;;;5.25;5.25;;;;;12.10;75.47;100921.59;5074763;27;46169;-59
2022/12/21 11:15:38;;;;;;;;;10.75;6.00;;;;;12.15;75.48;100928.53;5076303;27;45423;-59
2022/12/21 11:18:04;;;;;;;;;5.00;5.00;;;;;12.21;75.47;100931.00;5065386;27;45635;-59
2022/12/21 11:20:30;;;;;;;;;4.75;3.50;;;;;12.19;75.35;100919.44;5072590;27;46808;-59
2022/12/21 11:22:58;;;;;;;;;5.50;4.50;;;;;12.24;75.45;100913.94;5074382;28;45833;-59
2022/12/21 11:25:26;;;;;;;;;3.00;1.00;;;;;12.30;75.43;100919.06;5076959;27;45561;-60
2022/12/21 11:27:58;;;;;;;;;5.75;5.75;;;;;12.37;75.37;100922.41;5070073;28;45513;-59
2022/12/21 11:30:35;;;;;;;;;3.75;3.75;;;;;12.38;75.38;100927.69;5078337;27;48522;-59
2022/12/21 11:33:02;;;;;;;;;5.75;5.75;;;;;12.38;75.32;100932.19;5077633;27;45770;-59
2022/12/21 11:35:30;;;;;;;;;6.00;4.00;;;;;12.31;75.22;100903.88;5077777;28;45361;-59
2022/12/21 11:38:14;;;;;;;;;5.00;5.00;;;;;12.40;75.07;100915.13;5077512;28;45566;-59
2022/12/21 11:40:53;;;;;;;;;1.00;0.00;;;;;12.45;75.26;100912.28;5077397;27;45420;-59
2022/12/21 11:43:19;;;;;;;;;2.75;2.50;;;;;12.44;75.18;100907.84;5077127;27;45517;-59
2022/12/21 11:45:44;;;;;;;;;8.00;5.25;;;;;12.44;75.01;100897.13;5077805;27;45425;-59
2022/12/21 11:48:32;;;;;;;;;6.50;6.00;;;;;12.47;75.20;100896.16;5077386;28;45537;-59
2022/12/21 11:51:16;;;;;;;;;7.00;6.00;;;;;12.50;75.28;100899.59;5076900;27;46311;-59
2022/12/21 11:54:27;;;;;;;;;8.00;7.50;;;;;12.47;75.48;100882.78;5077660;28;45304;-59
2022/12/21 11:57:12;;;;;;;;;7.00;5.00;;;;;12.53;75.12;100896.81;5050430;28;45663;-59
2022/12/21 11:59:56;;;;;;;;;6.25;6.25;;;;;12.54;75.13;100892.31;5077404;28;45425;-59
2022/12/21 12:02:58;;;;;;;;;4.00;4.00;;;;;12.55;75.12;100881.53;5074875;28;45549;-59
2022/12/21 12:06:02;;;;;;;;;5.75;3.75;;;;;12.54;75.15;100878.91;5093166;27;45364;-59
2022/12/21 12:09:02;;;;;;;;;7.50;5.75;;;;;12.51;75.04;100865.66;5066057;27;45558;-59
2022/12/21 12:11:43;;;;;;;;;5.50;5.00;;;;;12.48;75.47;100847.91;5079897;27;45588;-59
2022/12/21 12:14:35;;;;;;;;;11.50;7.50;;;;;12.50;75.05;100855.88;5080863;27;45514;-59
2022/12/21 12:17:20;;;;;;;;;5.50;5.25;;;;;12.55;75.02;100859.25;5077385;27;45424;-59
2022/12/21 12:19:48;;;;;;;;;7.00;6.50;;;;;12.55;75.12;100861.94;5081862;28;45459;-59
2022/12/21 12:22:23;;;;;;;;;6.25;5.25;;;;;12.57;75.21;100849.34;5078099;28;45375;-59
2022/12/21 12:25:06;;;;;;;;;9.50;7.00;;;;;12.59;75.07;100836.78;5079949;28;45467;-59
2022/12/21 12:27:58;;;;;;;;;5.50;4.00;;;;;12.58;74.99;100830.56;5091227;27;45282;-59
2022/12/21 12:30:30;;;;;;;;;6.75;6.00;;;;;12.58;74.93;100833.22;5083230;27;45379;-59
2022/12/21 12:33:16;;;;;;;;;5.00;3.50;;;;;12.62;75.00;100835.78;5080652;28;45302;-59
2022/12/21 12:36:00;;;;;;;;;5.00;5.00;;;;;12.60;74.81;100825.13;5080292;27;45514;-59
2022/12/21 12:38:25;;;;;;;;;5.00;5.00;;;;;12.62;74.78;100822.41;5072142;28;45933;-60
2022/12/21 12:41:14;;;;;;;;;5.50;5.00;;;;;12.64;75.05;100810.69;5072823;28;45464;-60
2022/12/21 12:44:01;;;;;;;;;5.25;4.00;;;;;12.67;74.75;100793.63;5073658;28;45860;-60
2022/12/21 12:46:43;;;;;;;;;3.00;3.00;;;;;12.69;74.54;100797.09;5075650;27;46292;-60
2022/12/21 12:50:06;;;;;;;;;3.00;3.00;;;;;12.70;74.67;100782.78;5077509;27;45804;-59
2022/12/21 12:52:52;;;;;;;;;2.50;2.00;;;;;12.69;74.25;100781.03;5054238;28;45525;-59
2022/12/21 12:55:26;;;;;;;;;1.75;1.75;;;;;12.69;74.44;100779.22;5053131;28;45568;-58
2022/12/21 12:57:52;;;;;;;;;3.00;2.50;;;;;12.69;74.27;100778.34;5061867;27;45595;-59
2022/12/21 13:00:19;;;;;;;;;3.25;3.00;;;;;12.67;74.45;100767.72;5076923;27;45515;-59
2022/12/21 13:03:14;;;;;;;;;4.00;3.00;;;;;12.72;74.61;100775.56;5071879;27;45783;-59
2022/12/21 13:06:17;;;;;;;;;4.00;4.00;;;;;12.74;74.36;100781.72;5073831;27;45472;-59
2022/12/21 13:09:06;;;;;;;;;4.75;3.00;;;;;12.74;74.54;100774.53;5063351;28;45585;-59
2022/12/21 13:11:45;;;;;;;;;3.00;3.00;;;;;12.75;74.79;100772.75;5076283;27;45579;-59
2022/12/21 13:14:22;;;;;;;;;3.00;2.25;;;;;12.74;75.10;100763.84;5080148;28;45440;-59
2022/12/21 13:17:35;;;;;;;;;5.00;4.00;;;;;12.73;75.44;100759.44;5080848;28;45449;-58
2022/12/21 13:20:03;;;;;;;;;4.00;2.25;;;;;12.75;75.50;100752.19;5063848;28;45561;-59
2022/12/21 13:22:34;;;;;;;;;3.00;3.00;;;;;12.76;75.37;100743.25;5059979;28;46647;-59
2022/12/21 13:25:17;;;;;;;;;3.00;2.25;;;;;12.78;75.58;100737.81;5074712;27;45404;-59
2022/12/21 13:27:46;;;;;;;;;2.75;2.75;;;;;12.67;75.71;100711.47;5079812;28;45325;-59
2022/12/21 13:30:21;;;;;;;;;4.00;3.00;;;;;12.75;76.06;100728.09;5080260;27;46396;-59
2022/12/21 13:32:57;;;;;;;;;2.75;2.75;;;;;12.72;76.14;100722.84;5069524;28;45496;-59
2022/12/21 13:35:22;;;;;;;;;5.00;3.00;;;;;12.72;76.15;100722.00;5079368;28;45503;-59
2022/12/21 13:37:55;;;;;;;;;4.25;3.00;;;;;12.65;76.38;100705.31;5074422;28;45619;-59
2022/12/21 13:40:29;;;;;;;;;1.00;1.00;;;;;12.71;76.57;100713.09;5072113;27;46679;-59
2022/12/21 13:43:01;;;;;;;;;2.50;2.50;;;;;12.69;76.83;100712.28;5066650;28;45370;-59
2022/12/21 13:45:43;;;;;;;;;3.00;3.00;;;;;12.67;76.99;100705.25;5079297;27;45651;-59
2022/12/21 13:48:16;;;;;;;;;3.00;3.00;;;;;12.69;77.31;100708.72;5077724;27;45486;-59
2022/12/21 13:51:06;;;;;;;;;3.00;3.00;;;;;12.62;77.59;100692.03;5084763;27;48182;-59
2022/12/21 13:53:53;;;;;;;;;3.00;3.00;;;;;12.67;77.39;100694.53;5074977;27;45476;-59
2022/12/21 13:56:30;;;;;;;;;5.50;4.00;;;;;12.67;77.62;100691.84;5078970;28;45635;-59
2022/12/21 13:59:01;;;;;;;;;3.50;3.50;;;;;12.65;77.81;100688.38;5078408;27;45444;-59
2022/12/21 14:01:50;;;;;;;;;3.25;3.25;;;;;12.70;77.73;100684.56;5078736;27;45521;-59
2022/12/21 14:04:47;;;;;;;;;4.25;4.00;;;;;12.71;78.02;100685.44;5073921;27;45659;-59
2022/12/21 14:07:38;;;;;;;;;3.00;2.25;;;;;12.69;77.75;100681.94;5077050;27;46945;-59
2022/12/21 14:10:18;;;;;;;;;6.75;5.00;;;;;12.69;77.69;100673.91;5078250;27;45611;-59
2022/12/21 14:13:02;;;;;;;;;4.75;4.75;;;;;12.69;78.03;100657.84;5076599;28;47203;-59
2022/12/21 14:15:45;;;;;;;;;3.50;3.25;;;;;12.65;78.06;100653.56;5058497;28;46058;-59
2022/12/21 14:18:17;;;;;;;;;3.00;2.00;;;;;12.69;78.22;100660.53;5068356;28;45811;-59
2022/12/21 14:20:43;;;;;;;;;11.00;10.00;;;;;12.64;78.18;100650.00;5077714;28;45320;-59
2022/12/21 14:23:23;;;;;;;;;5.75;4.75;;;;;12.67;78.57;100667.75;5076269;27;47845;-59
2022/12/21 14:25:50;;;;;;;;;5.00;3.75;;;;;12.59;78.25;100649.31;5076764;27;45781;-59
2022/12/21 14:28:29;;;;;;;;;6.00;6.00;;;;;12.63;78.36;100653.63;5078421;28;45537;-59
2022/12/21 14:31:12;;;;;;;;;5.25;4.00;;;;;12.70;78.57;100664.94;5082296;27;45537;-59
2022/12/21 14:33:53;;;;;;;;;3.00;3.00;;;;;12.70;78.53;100660.47;5076277;27;47295;-59
2022/12/21 14:36:18;;;;;;;;;6.00;4.75;;;;;12.71;78.92;100661.31;5078475;27;45460;-59
2022/12/21 14:38:59;;;;;;;;;5.00;5.00;;;;;12.66;78.90;100636.53;5077609;28;45531;-59
2022/12/21 14:41:34;;;;;;;;;4.00;4.00;;;;;12.68;79.09;100656.09;5077656;27;45702;-59
2022/12/21 14:44:09;;;;;;;;;4.50;4.50;;;;;12.66;79.30;100653.47;5079629;27;46474;-59
2022/12/21 14:46:36;;;;;;;;;4.00;3.00;;;;;12.65;79.46;100645.53;5078280;27;45390;-59
2022/12/21 14:49:10;;;;;;;;;5.25;4.00;;;;;12.57;79.23;100625.28;5078442;28;45398;-59
2022/12/21 14:51:48;;;;;;;;;4.00;4.00;;;;;12.70;79.51;100639.03;5071359;27;46058;-59
2022/12/21 14:54:13;;;;;;;;;3.25;3.00;;;;;12.69;79.36;100628.38;5074482;28;47250;-59
2022/12/21 14:56:39;;;;;;;;;2.75;2.00;;;;;12.76;79.19;100629.84;5076394;28;46096;-59
2022/12/21 14:59:07;;;;;;;;;2.00;1.00;;;;;12.76;78.90;100624.50;5077627;27;45838;-59
2022/12/21 15:01:55;;;;;;;;;4.00;3.00;;;;;12.72;79.50;100615.72;5076903;28;45541;-58
2022/12/21 15:04:25;;;;;;;;;2.25;2.25;;;;;12.68;79.47;100616.81;5077130;28;45510;-59
2022/12/21 15:07:04;;;;;;;;;4.00;3.00;;;;;12.67;80.01;100619.56;5078304;28;45675;-59
2022/12/21 15:09:32;;;;;;;;;3.00;2.50;;;;;12.67;79.96;100619.56;5067224;27;45697;-59
2022/12/21 15:12:04;;;;;;;;;6.00;4.00;;;;;12.77;79.66;100619.06;5078187;27;45736;-59
2022/12/21 15:14:38;;;;;;;;;2.25;2.25;;;;;12.76;79.64;100606.63;5071568;27;46141;-59
2022/12/21 15:17:05;;;;;;;;;6.00;4.00;;;;;12.81;79.68;100609.09;5078558;27;45659;-59
2022/12/21 15:19:33;;;;;;;;;2.00;2.00;;;;;12.83;79.59;100603.66;5077023;28;45514;-59
2022/12/21 15:22:15;;;;;;;;;4.00;4.00;;;;;12.89;79.61;100606.94;5075541;27;46557;-59
2022/12/21 15:24:51;;;;;;;;;2.50;2.50;;;;;12.93;79.80;100613.94;5091675;27;46390;-59
2022/12/21 15:27:24;;;;;;;;;3.00;3.00;;;;;12.81;79.81;100576.94;5074608;27;45573;-59
2022/12/21 15:30:16;;;;;;;;;4.00;4.00;;;;;12.93;80.08;100599.63;5096572;27;45617;-59
2022/12/21 15:32:50;;;;;;;;;4.00;3.00;;;;;12.90;79.79;100587.28;5077618;27;46300;-59
2022/12/21 15:35:27;;;;;;;;;3.00;3.00;;;;;12.89;80.04;100585.50;5065683;28;45676;-58
2022/12/21 15:37:53;;;;;;;;;2.00;2.00;;;;;12.90;80.34;100586.41;5078068;27;45601;-59
2022/12/21 15:40:30;;;;;;;;;5.00;5.00;;;;;12.95;80.10;100581.72;5075961;27;45389;-59
2022/12/21 15:43:03;;;;;;;;;3.00;3.00;;;;;12.94;80.35;100569.25;5078338;27;45374;-59
2022/12/21 15:45:42;;;;;;;;;5.00;5.00;;;;;12.98;80.40;100563.69;5079997;27;45415;-59
2022/12/21 15:48:19;;;;;;;;;3.00;3.00;;;;;12.97;80.29;100545.84;5076305;28;45423;-59
2022/12/21 15:50:45;;;;;;;;;3.25;2.50;;;;;13.00;80.54;100544.88;5075149;28;45405;-59
2022/12/21 15:53:23;;;;;;;;;3.50;3.50;;;;;12.98;80.32;100539.56;5081783;27;45417;-59
2022/12/21 15:55:52;;;;;;;;;4.00;4.00;;;;;12.97;80.70;100535.16;5077646;27;45511;-59
2022/12/21 15:58:28;;;;;;;;;5.00;4.00;;;;;13.04;80.50;100543.78;5081759;27;45429;-59
2022/12/21 16:01:20;;;;;;;;;6.25;5.00;;;;;13.07;80.72;100545.44;5081550;28;45533;-59
2022/12/21 16:03:46;;;;;;;;;5.00;5.00;;;;;13.06;80.64;100533.84;5069960;28;45255;-59
2022/12/21 16:06:19;;;;;;;;;9.75;8.50;;;;;13.07;80.66;100540.94;5081915;28;46345;-59
2022/12/21 16:08:46;;;;;;;;;6.75;6.00;;;;;13.05;80.80;100533.94;5078838;28;45445;-59
2022/12/21 16:11:36;;;;;;;;;6.50;4.50;;;;;13.09;80.57;100539.06;5081823;27;45415;-59
2022/12/21 16:14:09;;;;;;;;;7.00;7.00;;;;;13.12;80.81;100544.28;5076735;27;45428;-59
2022/12/21 16:16:35;;;;;;;;;6.25;5.00;;;;;13.05;80.81;100529.44;5077413;27;45516;-59